createdAt,value
2023-09-23T00:01:36.915Z,2.78
2023-09-23T00:04:04.782Z,4.13
2023-09-23T00:06:32.459Z,4.32
2023-09-23T00:09:01.274Z,5.63
2023-09-23T00:11:29.802Z,3.63
2023-09-23T00:13:57.166Z,6.63
2023-09-23T00:16:24.486Z,3.67
2023-09-23T00:18:52.994Z,4.15
2023-09-23T00:21:20.265Z,4.10
2023-09-23T00:23:47.926Z,3.70
2023-09-23T00:26:18.883Z,5.20
2023-09-23T00:28:52.649Z,4.88
2023-09-23T00:31:20.390Z,7.60
2023-09-23T00:33:50.068Z,6.20
2023-09-23T00:36:17.462Z,6.25
2023-09-23T00:38:44.827Z,7.15
2023-09-23T00:41:12.647Z,5.65
2023-09-23T00:43:41.621Z,9.95
2023-09-23T00:46:09.779Z,9.52
2023-09-23T00:48:40.904Z,7.18
2023-09-23T00:51:08.614Z,8.35
2023-09-23T00:53:40.601Z,6.97
2023-09-23T00:56:09.457Z,7.38
2023-09-23T00:58:43.084Z,6.82
2023-09-23T01:01:10.367Z,6.65
2023-09-23T01:03:40.546Z,6.03
2023-09-23T01:06:22.917Z,5.50
2023-09-23T01:08:51.870Z,6.25
2023-09-23T01:11:19.913Z,3.45
2023-09-23T01:13:51.140Z,3.88
2023-09-23T01:16:18.402Z,6.32
2023-09-23T01:18:50.874Z,5.72
2023-09-23T01:21:19.801Z,5.82
2023-09-23T01:23:47.746Z,4.85
2023-09-23T01:26:16.615Z,5.97
2023-09-23T01:28:44.950Z,7.18
2023-09-23T01:31:12.664Z,6.05
2023-09-23T01:33:40.276Z,7.78
2023-09-23T01:36:07.668Z,5.95
2023-09-23T01:38:34.878Z,7.80
2023-09-23T01:41:03.586Z,7.78
2023-09-23T01:43:32.106Z,7.95
2023-09-23T01:46:05.083Z,8.95
2023-09-23T01:48:32.989Z,10.63
2023-09-23T01:51:00.431Z,12.18
2023-09-23T01:53:29.551Z,11.18
2023-09-23T01:55:57.238Z,10.48
2023-09-23T01:58:25.651Z,14.65
2023-09-23T02:00:55.346Z,13.82
2023-09-23T02:03:25.019Z,14.18
2023-09-23T02:05:52.663Z,14.52
2023-09-23T02:08:19.872Z,15.30
2023-09-23T02:10:47.239Z,15.85
2023-09-23T02:13:14.582Z,17.42
2023-09-23T02:15:41.950Z,16.98
2023-09-23T02:18:09.283Z,20.25
2023-09-23T02:20:37.287Z,22.58
2023-09-23T02:23:04.732Z,20.05
2023-09-23T02:25:32.085Z,20.35
2023-09-23T02:27:59.282Z,19.83
2023-09-23T02:30:26.863Z,23.10
2023-09-23T02:32:54.810Z,21.63
2023-09-23T02:35:22.887Z,20.23
2023-09-23T02:37:50.727Z,22.98
2023-09-23T02:40:19.491Z,20.60
2023-09-23T02:42:48.076Z,22.08
2023-09-23T02:45:16.547Z,22.67
2023-09-23T02:47:47.944Z,23.58
2023-09-23T02:50:16.288Z,22.60
2023-09-23T02:52:46.284Z,25.27
2023-09-23T02:55:20.641Z,27.45
2023-09-23T02:57:55.250Z,24.98
2023-09-23T03:00:24.630Z,21.02
2023-09-23T03:02:56.759Z,22.83
2023-09-23T03:05:28.633Z,26.30
2023-09-23T03:08:00.333Z,22.80
2023-09-23T03:10:40.666Z,23.48
2023-09-23T03:13:09.077Z,24.88
2023-09-23T03:15:51.569Z,24.15
2023-09-23T03:18:29.127Z,23.70
2023-09-23T03:21:05.217Z,25.13
2023-09-23T03:23:33.223Z,24.70
2023-09-23T03:26:01.536Z,24.05
2023-09-23T03:28:28.902Z,26.48
2023-09-23T03:31:00.760Z,27.15
2023-09-23T03:33:28.621Z,27.35
2023-09-23T03:35:56.127Z,28.08
2023-09-23T03:38:24.388Z,26.65
2023-09-23T03:40:54.227Z,24.77
2023-09-23T03:43:23.140Z,27.23
2023-09-23T03:45:51.023Z,28.95
2023-09-23T03:48:18.378Z,25.05
2023-09-23T03:50:45.528Z,24.02
2023-09-23T03:53:13.908Z,24.83
2023-09-23T03:55:41.509Z,22.70
2023-09-23T03:58:08.897Z,23.50
2023-09-23T04:00:36.636Z,22.05
2023-09-23T04:03:04.014Z,23.10
2023-09-23T04:05:32.809Z,23.77
2023-09-23T04:08:00.116Z,25.88
2023-09-23T04:10:28.459Z,21.13
2023-09-23T04:12:56.466Z,22.35
2023-09-23T04:15:25.666Z,22.23
2023-09-23T04:17:53.368Z,20.60
2023-09-23T04:20:20.719Z,21.02
2023-09-23T04:22:48.206Z,23.55
2023-09-23T04:25:15.488Z,19.98
2023-09-23T04:27:43.055Z,21.42
2023-09-23T04:30:12.442Z,21.92
2023-09-23T04:32:43.185Z,21.85
2023-09-23T04:35:12.643Z,21.60
2023-09-23T04:37:40.658Z,21.60
2023-09-23T04:40:12.328Z,22.42
2023-09-23T04:42:40.353Z,19.70
2023-09-23T04:45:09.207Z,20.02
2023-09-23T04:47:37.003Z,23.45
2023-09-23T04:50:06.068Z,19.83
2023-09-23T04:52:33.682Z,21.92
2023-09-23T04:55:01.266Z,19.80
2023-09-23T04:57:28.699Z,18.08
2023-09-23T04:59:58.699Z,19.60
2023-09-23T05:02:27.616Z,17.50
2023-09-23T05:04:55.293Z,21.05
2023-09-23T05:07:26.166Z,19.30
2023-09-23T05:09:54.160Z,18.80
2023-09-23T05:12:22.168Z,18.85
2023-09-23T05:14:50.487Z,17.67
2023-09-23T05:17:19.843Z,21.60
2023-09-23T05:19:49.976Z,19.20
2023-09-23T05:22:17.926Z,17.48
2023-09-23T05:24:48.898Z,18.40
2023-09-23T05:27:16.596Z,18.63
2023-09-23T05:29:44.528Z,15.60
2023-09-23T05:32:12.246Z,20.25
2023-09-23T05:34:43.876Z,17.45
2023-09-23T05:37:12.365Z,17.15
2023-09-23T05:39:45.854Z,19.10
2023-09-23T05:42:14.533Z,20.52
2023-09-23T05:44:42.453Z,17.92
2023-09-23T05:47:10.429Z,18.80
2023-09-23T05:49:38.316Z,16.83
2023-09-23T05:52:05.536Z,19.35
2023-09-23T05:54:33.451Z,18.02
2023-09-23T05:57:00.668Z,16.75
2023-09-23T05:59:28.037Z,16.85
2023-09-23T06:01:55.295Z,18.00
2023-09-23T06:04:22.657Z,17.75
2023-09-23T06:06:50.020Z,19.42
2023-09-23T06:09:17.680Z,19.88
2023-09-23T06:11:45.096Z,14.70
2023-09-23T06:14:13.260Z,15.73
2023-09-23T06:16:40.805Z,17.85
2023-09-23T06:19:09.760Z,13.80
2023-09-23T06:21:38.085Z,17.25
2023-09-23T06:24:05.465Z,15.43
2023-09-23T06:26:32.654Z,16.17
2023-09-23T06:28:59.934Z,13.77
2023-09-23T06:31:27.644Z,13.90
2023-09-23T06:33:54.932Z,16.70
2023-09-23T06:36:22.124Z,15.82
2023-09-23T06:38:49.304Z,15.77
2023-09-23T06:41:16.591Z,14.45
2023-09-23T06:43:44.006Z,11.68
2023-09-23T06:46:13.108Z,19.95
2023-09-23T06:48:40.379Z,15.27
2023-09-23T06:51:07.615Z,14.43
2023-09-23T06:53:34.798Z,15.93
2023-09-23T06:56:02.173Z,12.20
2023-09-23T06:58:29.645Z,12.30
2023-09-23T07:00:56.820Z,11.27
2023-09-23T07:03:24.298Z,14.50
2023-09-23T07:05:52.114Z,10.98
2023-09-23T07:08:19.513Z,11.25
2023-09-23T07:10:47.055Z,16.27
2023-09-23T07:13:14.277Z,11.02
2023-09-23T07:15:42.503Z,11.95
2023-09-23T07:18:10.576Z,13.00
2023-09-23T07:20:38.012Z,10.52
2023-09-23T07:23:05.409Z,9.88
2023-09-23T07:25:39.180Z,10.50
2023-09-23T07:28:09.857Z,12.35
2023-09-23T07:30:37.721Z,13.82
2023-09-23T07:33:05.278Z,11.30
2023-09-23T07:35:35.977Z,11.55
2023-09-23T07:38:04.002Z,12.68
2023-09-23T07:40:32.200Z,13.23
2023-09-23T07:42:59.662Z,10.55
2023-09-23T07:45:26.960Z,11.82
2023-09-23T07:47:54.283Z,12.07
2023-09-23T07:50:22.190Z,10.25
2023-09-23T07:52:49.702Z,12.98
2023-09-23T07:55:17.237Z,10.63
2023-09-23T07:57:44.527Z,12.57
2023-09-23T08:00:12.438Z,10.30
2023-09-23T08:02:39.947Z,11.75
2023-09-23T08:05:07.903Z,11.13
2023-09-23T08:07:35.267Z,12.55
2023-09-23T08:10:04.268Z,10.77
2023-09-23T08:12:34.545Z,11.18
2023-09-23T08:15:01.705Z,8.75
2023-09-23T08:17:29.130Z,8.70
2023-09-23T08:19:56.691Z,10.23
2023-09-23T08:22:23.918Z,12.60
2023-09-23T08:24:51.378Z,11.05
2023-09-23T08:27:18.564Z,12.50
2023-09-23T08:29:45.862Z,11.75
2023-09-23T08:32:13.352Z,11.45
2023-09-23T08:34:40.634Z,9.88
2023-09-23T08:37:07.892Z,10.52
2023-09-23T08:39:35.305Z,11.25
2023-09-23T08:42:05.750Z,10.80
2023-09-23T08:44:36.805Z,9.20
2023-09-23T08:47:04.120Z,10.02
2023-09-23T08:49:31.684Z,10.95
2023-09-23T08:51:59.723Z,7.55
2023-09-23T08:54:28.684Z,9.80
2023-09-23T08:56:56.563Z,9.50
2023-09-23T08:59:24.547Z,10.52
2023-09-23T09:01:51.862Z,10.07
2023-09-23T09:04:19.151Z,11.68
2023-09-23T09:06:49.166Z,9.98
2023-09-23T09:09:17.867Z,8.25
2023-09-23T09:11:52.370Z,12.15
2023-09-23T09:14:20.268Z,8.50
2023-09-23T09:16:47.698Z,11.55
2023-09-23T09:19:15.017Z,9.57
2023-09-23T09:21:45.211Z,7.80
2023-09-23T09:24:12.457Z,13.40
2023-09-23T09:26:39.669Z,12.25
2023-09-23T09:29:07.154Z,10.30
2023-09-23T09:31:35.438Z,9.57
2023-09-23T09:34:07.039Z,9.15
2023-09-23T09:36:35.524Z,10.05
2023-09-23T09:39:05.537Z,10.38
2023-09-23T09:41:36.924Z,9.50
2023-09-23T09:44:05.426Z,9.32
2023-09-23T09:46:32.764Z,8.68
2023-09-23T09:49:01.664Z,11.60
2023-09-23T09:51:29.204Z,8.73
2023-09-23T09:53:56.821Z,9.27
2023-09-23T09:56:26.080Z,10.52
2023-09-23T09:58:57.959Z,11.85
2023-09-23T10:01:25.268Z,7.68
2023-09-23T10:03:54.721Z,7.65
2023-09-23T10:06:27.493Z,10.05
2023-09-23T10:08:55.212Z,8.55
2023-09-23T10:11:38.779Z,7.25
2023-09-23T10:14:12.933Z,10.13
2023-09-23T10:16:40.130Z,9.02
2023-09-23T10:19:12.580Z,9.10
2023-09-23T10:21:39.777Z,6.40
2023-09-23T10:24:09.489Z,9.23
2023-09-23T10:26:44.878Z,7.72
2023-09-23T10:29:12.187Z,10.05
2023-09-23T10:31:39.613Z,8.07
2023-09-23T10:34:07.632Z,11.23
2023-09-23T10:36:37.491Z,7.55
2023-09-23T10:39:08.442Z,10.48
2023-09-23T10:41:36.499Z,7.15
2023-09-23T10:44:04.483Z,6.95
2023-09-23T10:46:32.387Z,6.93
2023-09-23T10:49:01.201Z,7.68
2023-09-23T10:51:29.065Z,4.22
2023-09-23T10:53:57.176Z,4.93
2023-09-23T10:56:26.387Z,4.50
2023-09-23T10:58:54.026Z,5.32
2023-09-23T11:01:24.240Z,7.00
2023-09-23T11:03:53.478Z,7.57
2023-09-23T11:06:20.910Z,4.88
2023-09-23T11:08:48.389Z,4.55
2023-09-23T11:11:16.550Z,4.53
2023-09-23T11:13:43.829Z,4.18
2023-09-23T11:16:11.570Z,4.60
2023-09-23T11:18:39.723Z,6.22
2023-09-23T11:21:07.148Z,7.30
2023-09-23T11:23:35.735Z,6.43
2023-09-23T11:26:03.743Z,6.00
2023-09-23T11:28:31.250Z,5.45
2023-09-23T11:30:59.353Z,3.83
2023-09-23T11:33:26.999Z,3.50
2023-09-23T11:35:56.051Z,2.22
2023-09-23T11:38:23.375Z,2.83
2023-09-23T11:40:50.651Z,2.83
2023-09-23T11:43:18.124Z,3.53
2023-09-23T11:45:45.372Z,4.20
2023-09-23T11:48:13.425Z,2.30
2023-09-23T11:50:40.891Z,3.08
2023-09-23T11:53:08.343Z,5.05
2023-09-23T11:55:36.273Z,3.60
2023-09-23T11:58:03.802Z,1.52
2023-09-23T12:00:31.185Z,3.15
2023-09-23T12:02:58.838Z,2.28
2023-09-23T12:05:30.559Z,1.73
2023-09-23T12:08:02.061Z,2.42
2023-09-23T12:10:30.826Z,3.92
2023-09-23T12:13:04.368Z,3.15
2023-09-23T12:15:32.929Z,3.67
2023-09-23T12:18:00.404Z,2.50
2023-09-23T12:20:28.289Z,5.38
2023-09-23T12:22:58.622Z,3.95
2023-09-23T12:25:26.093Z,2.65
2023-09-23T12:27:53.268Z,4.88
2023-09-23T12:30:20.664Z,6.72
2023-09-23T12:32:48.014Z,5.93
2023-09-23T12:35:15.309Z,6.32
2023-09-23T12:37:42.462Z,5.90
2023-09-23T12:40:11.169Z,4.15
2023-09-23T12:42:38.438Z,2.30
2023-09-23T12:45:07.653Z,2.83
2023-09-23T12:47:53.001Z,3.38
2023-09-23T12:50:22.265Z,5.35
2023-09-23T12:52:49.984Z,4.07
2023-09-23T12:55:17.257Z,3.08
2023-09-23T12:57:44.763Z,7.55
2023-09-23T13:00:12.829Z,3.47
2023-09-23T13:02:40.278Z,7.95
2023-09-23T13:05:09.454Z,4.93
2023-09-23T13:07:37.526Z,2.75
2023-09-23T13:10:06.005Z,2.30
2023-09-23T13:12:33.289Z,3.15
2023-09-23T13:15:00.627Z,1.25
2023-09-23T13:17:29.118Z,1.65
2023-09-23T13:19:56.795Z,2.42
2023-09-23T13:22:24.201Z,3.58
2023-09-23T13:24:53.085Z,1.15
2023-09-23T13:27:21.795Z,2.60
2023-09-23T13:29:49.616Z,2.15
2023-09-23T13:32:18.618Z,2.42
2023-09-23T13:34:46.013Z,3.47
2023-09-23T13:37:14.163Z,6.30
2023-09-23T13:39:41.497Z,6.78
2023-09-23T13:42:09.388Z,5.20
2023-09-23T13:44:36.880Z,3.38
2023-09-23T13:47:04.581Z,4.50
2023-09-23T13:49:31.917Z,1.95
2023-09-23T13:51:59.409Z,4.88
2023-09-23T13:54:26.637Z,5.22
2023-09-23T13:56:54.421Z,3.53
2023-09-23T13:59:21.821Z,2.47
2023-09-23T14:01:49.092Z,4.82
2023-09-23T14:04:16.275Z,3.92
2023-09-23T14:06:43.605Z,2.97
2023-09-23T14:09:12.221Z,2.60
2023-09-23T14:11:39.533Z,3.67
2023-09-23T14:14:06.802Z,3.35
2023-09-23T14:16:34.578Z,3.40
2023-09-23T14:19:01.857Z,4.43
2023-09-23T14:21:30.215Z,3.63
2023-09-23T14:23:57.709Z,3.65
2023-09-23T14:26:25.036Z,2.85
2023-09-23T14:28:52.361Z,5.15
2023-09-23T14:31:19.778Z,5.78
2023-09-23T14:33:47.122Z,8.85
2023-09-23T14:36:15.396Z,5.70
2023-09-23T14:38:42.649Z,3.45
2023-09-23T14:41:10.045Z,4.65
2023-09-23T14:43:37.203Z,1.88
2023-09-23T14:46:04.455Z,4.25
2023-09-23T14:48:31.703Z,3.72
2023-09-23T14:50:58.961Z,3.47
2023-09-23T14:53:26.307Z,1.02
2023-09-23T14:55:53.674Z,4.72
2023-09-23T14:58:20.863Z,2.17
2023-09-23T15:00:48.156Z,0.65
2023-09-23T15:03:15.557Z,2.88
2023-09-23T15:05:43.846Z,2.83
2023-09-23T15:08:11.470Z,2.78
2023-09-23T15:10:38.690Z,4.78
2023-09-23T15:13:05.934Z,4.55
2023-09-23T15:15:33.276Z,1.40
2023-09-23T15:18:00.640Z,5.00
2023-09-23T15:20:29.058Z,2.13
2023-09-23T15:22:56.408Z,1.45
2023-09-23T15:25:23.610Z,4.68
2023-09-23T15:27:50.843Z,2.08
2023-09-23T15:30:19.186Z,4.13
2023-09-23T15:32:48.205Z,1.98
2023-09-23T15:35:17.467Z,4.18
2023-09-23T15:37:44.784Z,4.65
2023-09-23T15:40:12.434Z,2.20
2023-09-23T15:42:39.756Z,2.72
2023-09-23T15:45:07.347Z,2.78
2023-09-23T15:47:34.682Z,3.40
2023-09-23T15:50:01.927Z,4.60
2023-09-23T15:52:29.179Z,4.90
2023-09-23T15:54:56.394Z,6.55
2023-09-23T15:57:23.765Z,2.42
2023-09-23T15:59:51.078Z,5.00
2023-09-23T16:02:18.321Z,3.63
2023-09-23T16:04:45.781Z,7.15
2023-09-23T16:07:13.075Z,4.70
2023-09-23T16:09:40.298Z,5.75
2023-09-23T16:12:09.039Z,4.28
2023-09-23T16:14:36.516Z,7.05
2023-09-23T16:17:03.846Z,3.92
2023-09-23T16:19:31.262Z,3.72
2023-09-23T16:21:58.666Z,3.63
2023-09-23T16:24:25.902Z,3.80
2023-09-23T16:26:53.208Z,6.47
2023-09-23T16:29:20.478Z,5.57
2023-09-23T16:31:47.661Z,3.25
2023-09-23T16:34:14.858Z,3.38
2023-09-23T16:36:42.460Z,6.25
2023-09-23T16:39:09.690Z,5.95
2023-09-23T16:41:37.131Z,7.32
2023-09-23T16:44:04.306Z,4.22
2023-09-23T16:46:32.145Z,3.78
2023-09-23T16:49:00.719Z,8.35
2023-09-23T16:51:28.095Z,4.22
2023-09-23T16:53:56.469Z,4.60
2023-09-23T16:56:23.715Z,2.47
2023-09-23T16:58:51.075Z,4.75
2023-09-23T17:01:18.284Z,3.53
2023-09-23T17:03:45.774Z,5.20
2023-09-23T17:06:13.201Z,5.10
2023-09-23T17:08:41.055Z,4.30
2023-09-23T17:11:08.592Z,5.22
2023-09-23T17:13:39.518Z,2.80
2023-09-23T17:16:07.340Z,3.83
2023-09-23T17:18:34.689Z,7.93
2023-09-23T17:21:02.099Z,4.85
2023-09-23T17:23:29.362Z,3.83
2023-09-23T17:25:56.777Z,4.90
2023-09-23T17:28:24.109Z,6.00
2023-09-23T17:30:51.283Z,1.95
2023-09-23T17:33:18.713Z,3.22
2023-09-23T17:35:46.254Z,2.53
2023-09-23T17:38:13.669Z,3.15
2023-09-23T17:40:47.834Z,2.88
2023-09-23T17:43:15.173Z,3.17
2023-09-23T17:45:42.608Z,1.58
2023-09-23T17:48:09.879Z,3.00
2023-09-23T17:50:37.349Z,3.20
2023-09-23T17:53:04.728Z,2.45
2023-09-23T17:55:31.973Z,3.75
2023-09-23T17:57:59.197Z,3.45
2023-09-23T18:00:26.371Z,2.08
2023-09-23T18:02:53.789Z,5.03
2023-09-23T18:05:21.232Z,2.88
2023-09-23T18:07:48.545Z,3.10
2023-09-23T18:10:15.889Z,1.52
2023-09-23T18:12:43.048Z,4.30
2023-09-23T18:15:13.923Z,5.82
2023-09-23T18:17:41.259Z,8.23
2023-09-23T18:20:09.645Z,6.82
2023-09-23T18:22:36.989Z,6.72
2023-09-23T18:25:04.470Z,4.72
2023-09-23T18:27:31.804Z,5.50
2023-09-23T18:29:58.931Z,5.47
2023-09-23T18:32:26.373Z,4.75
2023-09-23T18:34:54.360Z,6.10
2023-09-23T18:37:21.742Z,6.00
2023-09-23T18:39:49.165Z,4.55
2023-09-23T18:42:16.537Z,4.70
2023-09-23T18:44:43.956Z,4.28
2023-09-23T18:47:11.315Z,4.35
2023-09-23T18:49:39.005Z,4.97
2023-09-23T18:52:07.460Z,5.80
2023-09-23T18:54:35.220Z,4.22
2023-09-23T18:57:02.442Z,5.93
2023-09-23T18:59:29.876Z,5.07
2023-09-23T19:01:57.319Z,3.65
2023-09-23T19:04:25.210Z,5.13
2023-09-23T19:06:52.432Z,4.32
2023-09-23T19:09:20.409Z,4.93
2023-09-23T19:11:49.592Z,6.30
2023-09-23T19:14:17.862Z,6.20
2023-09-23T19:16:45.249Z,5.50
2023-09-23T19:19:14.027Z,5.55
2023-09-23T19:21:41.330Z,7.35
2023-09-23T19:24:08.985Z,6.38
2023-09-23T19:26:49.390Z,3.13
2023-09-23T19:29:22.108Z,5.55
2023-09-23T19:31:49.332Z,8.20
2023-09-23T19:34:16.878Z,5.05
2023-09-23T19:36:44.276Z,5.20
2023-09-23T19:39:15.789Z,5.35
2023-09-23T19:41:43.256Z,5.00
2023-09-23T19:44:10.822Z,6.10
2023-09-23T19:46:38.220Z,4.93
2023-09-23T19:49:05.486Z,8.02
2023-09-23T19:51:33.311Z,8.10
2023-09-23T19:54:00.635Z,7.85
2023-09-23T19:56:27.892Z,7.53
2023-09-23T19:58:55.604Z,7.15
2023-09-23T20:01:24.045Z,9.82
2023-09-23T20:03:51.494Z,7.10
2023-09-23T20:06:19.812Z,4.55
2023-09-23T20:08:47.630Z,3.65
2023-09-23T20:11:17.351Z,6.20
2023-09-23T20:13:45.334Z,6.10
2023-09-23T20:16:14.033Z,6.07
2023-09-23T20:18:41.266Z,7.72
2023-09-23T20:21:08.486Z,7.57
2023-09-23T20:23:35.870Z,8.93
2023-09-23T20:26:03.696Z,6.22
2023-09-23T20:28:34.129Z,7.60
2023-09-23T20:31:02.257Z,5.55
2023-09-23T20:33:29.936Z,7.75
2023-09-23T20:35:57.254Z,5.28
2023-09-23T20:38:24.911Z,5.82
2023-09-23T20:41:01.863Z,6.18
2023-09-23T20:43:29.268Z,7.00
2023-09-23T20:45:57.322Z,7.72
2023-09-23T20:48:24.619Z,6.97
2023-09-23T20:50:52.041Z,6.80
2023-09-23T20:53:19.382Z,5.40
2023-09-23T20:55:46.628Z,7.13
2023-09-23T20:58:14.147Z,4.85
2023-09-23T21:00:42.596Z,6.15
2023-09-23T21:03:10.454Z,8.32
2023-09-23T21:05:37.978Z,7.78
2023-09-23T21:08:06.286Z,7.03
2023-09-23T21:10:35.113Z,7.88
2023-09-23T21:13:02.878Z,8.82
2023-09-23T21:15:30.362Z,9.23
2023-09-23T21:18:00.257Z,8.73
2023-09-23T21:20:27.705Z,9.10
2023-09-23T21:22:54.963Z,8.85
2023-09-23T21:25:22.310Z,7.65
2023-09-23T21:27:49.628Z,8.70
2023-09-23T21:30:17.703Z,9.93
2023-09-23T21:32:45.102Z,8.15
2023-09-23T21:35:12.557Z,7.85
2023-09-23T21:37:39.799Z,9.65
2023-09-23T21:40:08.514Z,7.82
2023-09-23T21:42:35.783Z,8.32
2023-09-23T21:45:03.133Z,6.00
2023-09-23T21:47:32.752Z,6.50
2023-09-23T21:50:02.059Z,5.13
2023-09-23T21:52:29.396Z,5.78
2023-09-23T21:54:56.715Z,7.40
2023-09-23T21:57:23.951Z,6.97
2023-09-23T21:59:51.149Z,8.50
2023-09-23T22:02:20.644Z,7.43
2023-09-23T22:04:47.817Z,9.23
2023-09-23T22:07:14.958Z,8.75
2023-09-23T22:09:42.156Z,7.25
2023-09-23T22:12:09.775Z,6.95
2023-09-23T22:14:37.046Z,7.15
2023-09-23T22:17:04.249Z,10.73
2023-09-23T22:19:32.428Z,8.95
2023-09-23T22:22:02.002Z,6.88
2023-09-23T22:24:29.489Z,8.48
2023-09-23T22:26:56.832Z,8.43
2023-09-23T22:29:24.323Z,9.65
2023-09-23T22:31:53.665Z,7.82
2023-09-23T22:34:21.402Z,9.95
2023-09-23T22:36:48.656Z,8.30
2023-09-23T22:39:15.842Z,7.55
2023-09-23T22:41:43.811Z,9.70
2023-09-23T22:44:11.144Z,7.57
2023-09-23T22:46:39.902Z,8.85
2023-09-23T22:49:07.283Z,7.30
2023-09-23T22:51:34.651Z,9.18
2023-09-23T22:54:02.010Z,9.68
2023-09-23T22:56:30.385Z,9.18
2023-09-23T22:58:57.719Z,7.95
2023-09-23T23:01:26.349Z,9.10
2023-09-23T23:03:54.163Z,9.38
2023-09-23T23:06:21.506Z,10.63
2023-09-23T23:08:48.808Z,10.50
2023-09-23T23:11:16.230Z,7.63
2023-09-23T23:13:44.393Z,7.45
2023-09-23T23:16:19.380Z,8.35
2023-09-23T23:18:46.702Z,8.02
2023-09-23T23:21:13.916Z,8.73
2023-09-23T23:23:41.185Z,9.13
2023-09-23T23:26:08.675Z,10.70
2023-09-23T23:28:37.216Z,9.15
2023-09-23T23:31:06.164Z,11.85
2023-09-23T23:33:33.720Z,8.38
2023-09-23T23:36:01.696Z,7.55
2023-09-23T23:38:30.016Z,8.43
2023-09-23T23:40:57.506Z,7.80
2023-09-23T23:43:25.030Z,9.98
2023-09-23T23:45:59.768Z,8.55
2023-09-23T23:48:31.045Z,10.82
2023-09-23T23:51:04.664Z,9.50
2023-09-23T23:53:33.380Z,9.02
2023-09-23T23:56:01.376Z,8.85
2023-09-23T23:58:28.808Z,8.93
